Time;durP1;ratioP1;P1;durP2;ratioP2;P2;SDS_P1;SDS_P2;PMS_P1;PMS_P2;Temp;Humidity;BMP_temperature;BMP_pressure;BME280_temperature;BME280_humidity;BME280_pressure;Samples;Min_cycle;Max_cycle;Signal;HPM_P1;HPM_P2
2024/01/05 00:01:48;;;;;;;12.23;6.93;;;3.30;99.90;;;;;;5136870;27;20246;-79
2024/01/05 00:04:15;;;;;;;21.57;7.63;;;3.20;99.90;;;;;;5132600;27;20216;-80
2024/01/05 00:06:42;;;;;;;14.73;6.57;;;3.20;99.90;;;;;;5116298;28;20197;-79
2024/01/05 00:09:10;;;;;;;14.40;7.57;;;3.20;99.90;;;;;;5116147;28;20197;-81
2024/01/05 00:11:37;;;;;;;13.67;7.80;;;3.10;99.90;;;;;;5115377;28;20197;-80
2024/01/05 00:14:03;;;;;;;13.87;7.57;;;3.10;99.90;;;;;;5115831;28;20195;-80
2024/01/05 00:16:30;;;;;;;17.53;7.77;;;3.10;99.90;;;;;;5115984;28;20192;-80
2024/01/05 00:18:57;;;;;;;18.57;8.53;;;3.00;99.90;;;;;;5115833;28;20206;-80
2024/01/05 00:21:25;;;;;;;16.03;9.80;;;3.10;99.90;;;;;;5115857;28;20540;-80
2024/01/05 00:23:52;;;;;;;24.10;10.00;;;3.10;99.90;;;;;;5115718;28;20192;-80
2024/01/05 00:26:21;;;;;;;18.07;8.20;;;3.10;99.90;;;;;;5115652;28;20667;-80
2024/01/05 00:28:50;;;;;;;16.30;7.53;;;3.20;99.90;;;;;;5115777;28;20200;-80
2024/01/05 00:31:17;;;;;;;16.37;7.43;;;3.10;99.90;;;;;;5115719;28;20212;-79
2024/01/05 00:33:45;;;;;;;14.67;7.43;;;3.20;99.90;;;;;;5115575;28;20200;-79
2024/01/05 00:36:12;;;;;;;10.47;7.27;;;3.30;99.90;;;;;;5115594;28;20204;-80
2024/01/05 00:38:41;;;;;;;16.23;7.97;;;3.30;99.90;;;;;;5115756;28;20260;-80
2024/01/05 00:41:07;;;;;;;17.87;9.23;;;3.30;99.90;;;;;;5115501;28;20317;-79
2024/01/05 00:43:35;;;;;;;16.67;7.90;;;3.30;99.90;;;;;;5115302;28;20363;-79
2024/01/05 00:46:02;;;;;;;10.80;6.77;;;3.20;99.90;;;;;;5115327;28;20197;-79
2024/01/05 00:48:28;;;;;;;13.90;8.10;;;3.10;99.90;;;;;;5115325;28;20262;-80
2024/01/05 00:50:55;;;;;;;13.67;7.47;;;3.00;99.90;;;;;;5115494;28;20242;-79
2024/01/05 00:53:22;;;;;;;13.03;7.43;;;3.00;99.90;;;;;;5115490;28;20256;-79
2024/01/05 00:55:48;;;;;;;14.13;7.43;;;3.00;99.90;;;;;;5115180;28;20211;-81
2024/01/05 00:58:15;;;;;;;13.63;8.00;;;3.00;99.90;;;;;;5115013;28;20222;-80
2024/01/05 01:00:43;;;;;;;17.73;7.60;;;3.10;99.90;;;;;;5115105;28;20229;-79
2024/01/05 01:03:09;;;;;;;11.87;7.47;;;3.00;99.90;;;;;;5114948;28;20200;-79
2024/01/05 01:05:36;;;;;;;15.90;7.77;;;3.10;99.90;;;;;;5115206;28;20204;-79
2024/01/05 01:08:03;;;;;;;12.57;7.60;;;3.20;99.90;;;;;;5115021;28;20201;-79
2024/01/05 01:10:30;;;;;;;14.97;8.17;;;3.20;99.90;;;;;;5114986;28;20202;-80
2024/01/05 01:12:56;;;;;;;17.07;8.03;;;3.20;99.90;;;;;;5114920;28;20533;-80
2024/01/05 01:15:23;;;;;;;18.00;7.30;;;3.10;99.90;;;;;;5114840;28;20223;-81
2024/01/05 01:17:51;;;;;;;19.67;8.07;;;3.10;99.90;;;;;;5114940;28;20255;-80
2024/01/05 01:20:18;;;;;;;15.00;7.80;;;3.00;99.90;;;;;;5114800;28;20289;-79
2024/01/05 01:22:45;;;;;;;15.87;7.50;;;3.00;99.90;;;;;;5113968;28;20717;-80
2024/01/05 01:25:11;;;;;;;17.53;7.53;;;2.90;99.90;;;;;;5114633;28;20284;-80
2024/01/05 01:27:38;;;;;;;14.73;7.83;;;2.80;99.90;;;;;;5114654;28;20340;-80
2024/01/05 01:30:08;;;;;;;17.33;7.97;;;2.80;99.90;;;;;;5114539;28;20195;-80
2024/01/05 01:32:36;;;;;;;14.13;7.70;;;2.80;99.90;;;;;;5114655;28;20202;-80
2024/01/05 01:35:05;;;;;;;11.10;7.20;;;2.70;99.90;;;;;;5114453;28;20273;-80
2024/01/05 01:37:31;;;;;;;14.23;7.10;;;2.70;99.90;;;;;;5114355;28;20197;-80
2024/01/05 01:39:58;;;;;;;16.60;7.70;;;2.70;99.90;;;;;;5114397;28;20231;-79
2024/01/05 01:42:24;;;;;;;16.23;8.27;;;2.80;99.90;;;;;;5114000;28;20585;-80
2024/01/05 01:44:52;;;;;;;17.93;7.60;;;2.80;99.90;;;;;;5114199;28;20614;-80
2024/01/05 01:47:19;;;;;;;17.50;8.37;;;2.80;99.90;;;;;;5114214;28;20607;-80
2024/01/05 01:49:46;;;;;;;19.03;8.27;;;2.70;99.90;;;;;;5114293;28;20201;-80
2024/01/05 01:52:15;;;;;;;13.37;7.60;;;2.70;99.90;;;;;;5114061;28;20204;-80
2024/01/05 01:54:42;;;;;;;16.13;7.43;;;2.70;99.90;;;;;;5114074;28;20290;-80
2024/01/05 01:57:09;;;;;;;16.73;6.77;;;2.70;99.90;;;;;;5114106;28;20199;-80
2024/01/05 01:59:36;;;;;;;16.23;6.87;;;2.80;99.90;;;;;;5113794;28;20203;-79
2024/01/05 02:02:03;;;;;;;16.53;7.67;;;2.70;99.90;;;;;;5114084;28;20244;-80
2024/01/05 02:04:30;;;;;;;20.60;7.43;;;2.70;99.90;;;;;;5114028;28;20252;-80
2024/01/05 02:06:57;;;;;;;13.03;7.40;;;2.70;99.90;;;;;;5113778;28;20196;-80
2024/01/05 02:09:25;;;;;;;16.43;7.53;;;2.60;99.90;;;;;;5113875;28;20658;-80
2024/01/05 02:11:52;;;;;;;14.57;7.77;;;2.60;99.90;;;;;;5113750;28;20601;-80
2024/01/05 02:14:18;;;;;;;12.33;7.47;;;2.60;99.90;;;;;;5113395;28;20596;-80
2024/01/05 02:16:45;;;;;;;14.63;6.80;;;2.50;99.90;;;;;;5113526;28;20196;-80
2024/01/05 02:19:11;;;;;;;14.53;7.40;;;2.60;99.90;;;;;;5113646;28;20249;-81
2024/01/05 02:21:43;;;;;;;17.10;7.40;;;2.50;99.90;;;;;;5113584;28;20564;-80
2024/01/05 02:24:11;;;;;;;16.90;7.90;;;2.50;99.90;;;;;;5113638;28;20199;-80
2024/01/05 02:26:37;;;;;;;18.33;8.80;;;2.50;99.90;;;;;;5113598;28;20195;-80
2024/01/05 02:29:03;;;;;;;19.40;9.53;;;2.60;99.90;;;;;;5113742;28;20195;-80
2024/01/05 02:31:30;;;;;;;19.03;8.90;;;2.60;99.90;;;;;;5113640;28;20394;-80
2024/01/05 02:33:57;;;;;;;15.47;8.70;;;2.60;99.90;;;;;;5113229;28;20256;-80
2024/01/05 02:36:23;;;;;;;21.10;8.93;;;2.60;99.90;;;;;;5113387;28;20198;-79
2024/01/05 02:38:50;;;;;;;17.60;8.27;;;2.60;99.90;;;;;;5113454;28;20200;-80
2024/01/05 02:41:18;;;;;;;19.73;8.30;;;2.60;99.90;;;;;;5113375;28;20277;-79
2024/01/05 02:43:45;;;;;;;17.13;7.73;;;2.60;99.90;;;;;;5113215;28;20235;-81
2024/01/05 02:46:12;;;;;;;13.97;8.33;;;2.60;99.90;;;;;;5113237;28;20197;-80
2024/01/05 02:48:39;;;;;;;11.23;7.50;;;2.60;99.90;;;;;;5113308;28;20265;-80
2024/01/05 02:51:05;;;;;;;13.80;7.33;;;2.70;99.90;;;;;;5113246;28;20237;-80
2024/01/05 02:53:32;;;;;;;18.07;9.13;;;2.80;99.90;;;;;;5113133;28;20200;-80
2024/01/05 02:55:59;;;;;;;17.13;7.57;;;3.00;99.90;;;;;;5113323;28;20265;-80
2024/01/05 02:58:27;;;;;;;17.63;8.27;;;3.10;99.90;;;;;;5113273;28;20204;-78
2024/01/05 03:00:53;;;;;;;16.47;7.43;;;3.20;99.90;;;;;;5113036;28;20675;-79
2024/01/05 03:03:20;;;;;;;17.40;7.43;;;3.30;99.90;;;;;;5113234;28;20195;-79
2024/01/05 03:05:47;;;;;;;12.73;7.10;;;3.30;99.90;;;;;;5113080;28;20287;-79
2024/01/05 03:08:13;;;;;;;24.40;14.10;;;3.20;99.90;;;;;;5113154;28;20206;-79
2024/01/05 03:10:40;;;;;;;22.17;10.67;;;3.20;99.90;;;;;;5113125;28;20645;-79
2024/01/05 03:13:07;;;;;;;18.40;10.43;;;3.20;99.90;;;;;;5113274;28;20209;-79
2024/01/05 03:15:35;;;;;;;22.40;13.43;;;3.20;99.90;;;;;;5113043;28;20242;-79
2024/01/05 03:18:02;;;;;;;23.40;12.97;;;3.10;99.90;;;;;;5113176;28;20246;-79
2024/01/05 03:20:28;;;;;;;19.77;10.33;;;3.10;99.90;;;;;;5112940;28;20233;-79
2024/01/05 03:22:55;;;;;;;15.67;9.07;;;3.10;99.90;;;;;;5112943;28;20210;-79
2024/01/05 03:25:22;;;;;;;15.23;9.50;;;3.20;99.90;;;;;;5113177;28;20200;-79
2024/01/05 03:27:48;;;;;;;15.00;8.77;;;3.20;99.90;;;;;;5112969;28;20196;-79
2024/01/05 03:30:15;;;;;;;16.00;8.77;;;3.30;99.90;;;;;;5112967;28;20206;-80
2024/01/05 03:32:44;;;;;;;15.50;8.00;;;3.30;99.90;;;;;;5112965;28;20559;-79
2024/01/05 03:35:11;;;;;;;19.33;8.30;;;3.30;99.90;;;;;;5112786;28;20257;-79
2024/01/05 03:37:37;;;;;;;17.10;8.27;;;3.20;99.90;;;;;;5112836;28;20201;-79
2024/01/05 03:40:05;;;;;;;13.70;7.97;;;3.20;99.90;;;;;;5112941;28;20197;-80
2024/01/05 03:42:31;;;;;;;16.23;8.13;;;3.20;99.90;;;;;;5112646;28;20232;-79
2024/01/05 03:44:58;;;;;;;18.93;7.70;;;3.10;99.90;;;;;;5112954;28;20607;-79
2024/01/05 03:47:24;;;;;;;12.30;6.83;;;3.00;99.90;;;;;;5115101;28;20205;-79
2024/01/05 03:49:53;;;;;;;18.07;6.87;;;3.10;99.90;;;;;;5116504;28;20198;-80
2024/01/05 03:52:19;;;;;;;13.20;7.00;;;3.10;99.90;;;;;;5116573;28;20600;-79
2024/01/05 03:54:46;;;;;;;22.53;6.90;;;3.10;99.90;;;;;;5116631;28;20663;-79
2024/01/05 03:57:12;;;;;;;18.43;6.77;;;3.10;99.90;;;;;;5116505;28;20257;-79
2024/01/05 03:59:42;;;;;;;13.30;7.03;;;3.10;99.90;;;;;;5116469;28;20249;-79
2024/01/05 04:02:09;;;;;;;15.87;7.73;;;3.20;99.90;;;;;;5116232;28;20634;-79
2024/01/05 04:04:35;;;;;;;13.80;7.77;;;3.00;99.90;;;;;;5115814;28;20249;-79
2024/01/05 04:07:04;;;;;;;11.60;7.67;;;3.00;99.90;;;;;;5116393;28;20196;-79
2024/01/05 04:09:31;;;;;;;18.40;7.77;;;3.00;99.90;;;;;;5116315;28;20199;-79
2024/01/05 04:11:58;;;;;;;15.60;7.70;;;3.00;99.90;;;;;;5116148;28;20200;-79
2024/01/05 04:14:24;;;;;;;16.80;8.17;;;2.80;99.90;;;;;;5116134;28;20242;-79
2024/01/05 04:16:51;;;;;;;17.97;7.63;;;2.80;99.90;;;;;;5116113;28;20212;-79
2024/01/05 04:19:18;;;;;;;26.87;11.50;;;2.80;99.90;;;;;;5115974;28;20199;-80
2024/01/05 04:21:45;;;;;;;20.83;10.90;;;2.70;99.90;;;;;;5115784;28;20569;-78
2024/01/05 04:24:13;;;;;;;20.33;8.67;;;2.70;99.90;;;;;;5116261;28;20197;-80
2024/01/05 04:26:39;;;;;;;15.47;7.60;;;2.70;99.90;;;;;;5115966;28;20241;-80
2024/01/05 04:29:06;;;;;;;14.80;7.83;;;2.70;99.90;;;;;;5115942;28;20200;-79
2024/01/05 04:31:33;;;;;;;21.37;9.13;;;2.70;99.90;;;;;;5116038;28;20200;-79
2024/01/05 04:33:59;;;;;;;15.07;8.13;;;2.70;99.90;;;;;;5115893;28;20200;-79
2024/01/05 04:36:26;;;;;;;21.23;7.83;;;2.70;99.90;;;;;;5115800;28;20200;-79
2024/01/05 04:38:52;;;;;;;15.97;8.40;;;2.70;99.90;;;;;;5115670;28;20244;-80
2024/01/05 04:41:21;;;;;;;17.07;7.33;;;2.60;99.90;;;;;;5115519;28;20211;-80
2024/01/05 04:43:49;;;;;;;18.67;7.80;;;2.60;99.90;;;;;;5115351;28;20711;-80
2024/01/05 04:46:16;;;;;;;20.60;7.00;;;2.60;99.90;;;;;;5115686;28;20202;-80
2024/01/05 04:48:42;;;;;;;14.53;7.40;;;2.60;99.90;;;;;;5115822;28;20249;-79
2024/01/05 04:51:09;;;;;;;12.43;6.90;;;2.50;99.90;;;;;;5115593;28;20204;-79
2024/01/05 04:53:36;;;;;;;12.27;5.90;;;2.50;99.90;;;;;;5115328;28;20234;-79
2024/01/05 04:56:04;;;;;;;15.20;6.47;;;2.40;99.90;;;;;;5115343;28;20203;-78
2024/01/05 04:58:32;;;;;;;12.50;5.70;;;2.40;99.90;;;;;;5115163;28;20218;-79
2024/01/05 05:00:58;;;;;;;15.90;6.30;;;2.40;99.90;;;;;;5115435;28;20274;-79
2024/01/05 05:03:28;;;;;;;12.87;5.67;;;2.50;99.90;;;;;;5115189;28;20204;-79
2024/01/05 05:05:55;;;;;;;11.07;5.80;;;2.50;99.90;;;;;;5115231;28;20196;-79
2024/01/05 05:08:22;;;;;;;14.73;5.83;;;2.50;99.90;;;;;;5115153;28;20680;-79
2024/01/05 05:10:49;;;;;;;9.73;5.10;;;2.70;99.90;;;;;;5114927;28;20249;-79
2024/01/05 05:13:15;;;;;;;14.43;5.50;;;2.70;99.90;;;;;;5119968;28;20264;-78
2024/01/05 05:15:43;;;;;;;11.50;5.00;;;2.70;99.90;;;;;;5117423;28;20250;-79
2024/01/05 05:18:10;;;;;;;12.33;5.37;;;2.70;99.90;;;;;;5117049;28;20242;-79
2024/01/05 05:20:37;;;;;;;14.97;5.40;;;2.60;99.90;;;;;;5115740;28;20195;-79
2024/01/05 05:23:04;;;;;;;8.37;4.97;;;2.50;99.90;;;;;;5116179;28;20192;-79
2024/01/05 05:25:30;;;;;;;9.73;5.30;;;2.60;99.90;;;;;;5115154;28;20286;-79
2024/01/05 05:27:57;;;;;;;11.63;5.43;;;2.60;99.90;;;;;;5114862;28;20199;-78
2024/01/05 05:30:24;;;;;;;9.23;5.53;;;2.50;99.90;;;;;;5114893;28;20249;-79
2024/01/05 05:32:51;;;;;;;11.17;5.90;;;2.50;99.90;;;;;;5115198;28;20204;-79
2024/01/05 05:35:18;;;;;;;12.33;5.80;;;2.60;99.90;;;;;;5114624;28;20605;-79
2024/01/05 05:37:45;;;;;;;10.33;5.13;;;2.60;99.90;;;;;;5114468;28;20603;-78
2024/01/05 05:40:12;;;;;;;9.90;5.80;;;2.50;99.90;;;;;;5114312;28;20200;-78
2024/01/05 05:42:39;;;;;;;8.77;5.40;;;2.60;99.90;;;;;;5113974;28;20360;-78
2024/01/05 05:45:06;;;;;;;8.87;5.57;;;2.50;99.90;;;;;;5114326;28;20249;-78
2024/01/05 05:47:33;;;;;;;11.13;5.33;;;2.50;99.90;;;;;;5114176;28;20627;-78
2024/01/05 05:50:01;;;;;;;13.70;5.73;;;2.50;99.90;;;;;;5114291;28;20202;-78
2024/01/05 05:52:28;;;;;;;11.37;5.93;;;2.50;99.90;;;;;;5114185;28;20589;-79
2024/01/05 05:54:54;;;;;;;15.07;5.53;;;2.50;99.90;;;;;;5114051;28;20670;-79
2024/01/05 05:57:21;;;;;;;11.00;5.33;;;2.60;99.90;;;;;;5113627;28;20603;-79
2024/01/05 05:59:48;;;;;;;10.93;5.93;;;2.60;99.90;;;;;;5113830;28;20195;-79
2024/01/05 06:02:14;;;;;;;13.40;6.27;;;2.70;99.90;;;;;;5113908;28;20223;-79
2024/01/05 06:04:41;;;;;;;12.40;5.70;;;2.80;99.90;;;;;;5113704;28;20224;-79
2024/01/05 06:07:09;;;;;;;14.43;5.77;;;2.90;99.90;;;;;;5113733;28;20277;-79
2024/01/05 06:09:36;;;;;;;11.87;5.57;;;2.90;99.90;;;;;;5113264;28;20200;-79
2024/01/05 06:12:03;;;;;;;13.30;6.00;;;2.80;99.90;;;;;;5113953;28;20207;-79
2024/01/05 06:14:29;;;;;;;14.20;6.00;;;2.80;99.90;;;;;;5114022;28;20196;-79
2024/01/05 06:16:56;;;;;;;13.07;5.53;;;2.70;99.90;;;;;;5113807;28;20520;-80
2024/01/05 06:19:23;;;;;;;7.13;5.20;;;2.50;99.90;;;;;;5113715;28;20244;-79
2024/01/05 06:21:49;;;;;;;8.47;5.20;;;2.50;99.90;;;;;;5113485;28;20312;-79
2024/01/05 06:24:17;;;;;;;12.20;5.67;;;2.50;99.90;;;;;;5113529;28;20690;-79
2024/01/05 06:26:44;;;;;;;13.00;4.90;;;2.40;99.90;;;;;;5113535;28;20211;-79
2024/01/05 06:29:10;;;;;;;8.47;5.50;;;2.40;99.90;;;;;;5113682;28;20253;-79
2024/01/05 06:31:37;;;;;;;10.87;5.87;;;2.50;99.90;;;;;;5113502;28;20195;-79
2024/01/05 06:34:04;;;;;;;9.13;4.97;;;2.40;99.90;;;;;;5113485;28;20655;-79
2024/01/05 06:36:30;;;;;;;9.70;5.80;;;2.30;99.90;;;;;;5112911;28;20249;-79
2024/01/05 06:38:57;;;;;;;9.57;6.10;;;2.30;99.90;;;;;;5113410;28;20256;-79
2024/01/05 06:41:25;;;;;;;10.63;5.30;;;2.30;99.90;;;;;;5113354;28;20220;-79
2024/01/05 06:43:52;;;;;;;11.10;5.47;;;2.20;99.90;;;;;;5113214;28;20276;-79
2024/01/05 06:46:18;;;;;;;11.57;5.83;;;2.30;99.90;;;;;;5113368;28;20554;-79
2024/01/05 06:48:45;;;;;;;11.23;5.60;;;2.30;99.90;;;;;;5113478;28;20201;-80
2024/01/05 06:51:11;;;;;;;10.87;5.73;;;2.40;99.90;;;;;;5113173;28;20699;-80
2024/01/05 06:53:38;;;;;;;14.67;5.43;;;2.50;99.90;;;;;;5113335;28;20225;-79
2024/01/05 06:56:06;;;;;;;16.80;5.80;;;2.40;99.90;;;;;;5113022;28;20192;-79
2024/01/05 06:58:34;;;;;;;12.03;5.23;;;2.50;99.90;;;;;;5113136;28;20196;-79
2024/01/05 07:01:01;;;;;;;11.50;6.13;;;2.60;99.90;;;;;;5113279;28;20206;-79
2024/01/05 07:03:27;;;;;;;10.20;5.77;;;2.50;99.90;;;;;;5113109;28;20223;-79
2024/01/05 07:05:54;;;;;;;12.33;5.70;;;2.40;99.90;;;;;;5113280;28;20207;-79
2024/01/05 07:08:21;;;;;;;11.80;6.23;;;2.40;99.90;;;;;;5112482;28;20196;-79
2024/01/05 07:10:47;;;;;;;18.17;8.03;;;2.30;99.90;;;;;;5113008;28;20517;-79
2024/01/05 07:13:14;;;;;;;17.13;10.17;;;2.20;99.90;;;;;;5113063;28;20199;-79
2024/01/05 07:15:42;;;;;;;13.30;6.67;;;2.20;99.90;;;;;;5112902;28;20198;-79
2024/01/05 07:18:09;;;;;;;8.60;5.90;;;2.40;99.90;;;;;;5112798;28;20202;-79
2024/01/05 07:20:35;;;;;;;12.50;5.73;;;2.50;99.90;;;;;;5113988;28;20200;-79
2024/01/05 07:23:02;;;;;;;9.87;5.73;;;2.50;99.90;;;;;;5116941;28;20264;-78
2024/01/05 07:25:28;;;;;;;9.87;5.50;;;2.40;99.90;;;;;;5117053;28;20200;-79
2024/01/05 07:27:55;;;;;;;12.00;5.80;;;2.40;99.90;;;;;;5116947;28;20221;-79
2024/01/05 07:30:23;;;;;;;11.20;5.80;;;2.60;99.90;;;;;;5117014;28;20202;-79
2024/01/05 07:32:51;;;;;;;9.97;5.83;;;2.50;99.90;;;;;;5116812;28;20278;-78
2024/01/05 07:35:17;;;;;;;8.17;5.90;;;2.60;99.90;;;;;;5116754;28;20206;-78
2024/01/05 07:37:46;;;;;;;9.50;6.07;;;2.60;99.90;;;;;;5116964;28;20203;-78
2024/01/05 07:40:13;;;;;;;13.53;6.40;;;2.70;99.90;;;;;;5116803;28;20197;-78
2024/01/05 07:42:40;;;;;;;11.27;5.87;;;2.70;99.90;;;;;;5116425;28;20228;-79
2024/01/05 07:45:07;;;;;;;10.17;5.83;;;2.80;99.90;;;;;;5116518;28;20257;-80
2024/01/05 07:47:34;;;;;;;11.17;6.10;;;2.80;99.90;;;;;;5116674;28;20192;-79
2024/01/05 07:50:03;;;;;;;11.83;6.30;;;2.80;99.90;;;;;;5116415;28;20722;-78
2024/01/05 07:52:29;;;;;;;10.20;6.40;;;2.90;99.90;;;;;;5116485;28;20204;-79
2024/01/05 07:54:56;;;;;;;10.40;6.37;;;2.90;99.90;;;;;;5116425;28;20252;-78
2024/01/05 07:57:23;;;;;;;11.13;6.10;;;2.90;99.90;;;;;;5116367;28;20200;-78
2024/01/05 07:59:49;;;;;;;10.53;6.83;;;2.90;99.90;;;;;;5116209;28;20203;-78
2024/01/05 08:02:16;;;;;;;10.90;6.33;;;2.90;99.90;;;;;;5116027;28;20266;-78
2024/01/05 08:04:43;;;;;;;10.30;6.40;;;3.00;99.90;;;;;;5116254;28;20232;-79
2024/01/05 08:07:12;;;;;;;10.10;6.40;;;3.00;99.90;;;;;;5116289;28;20202;-78
2024/01/05 08:09:41;;;;;;;12.03;6.23;;;3.10;99.90;;;;;;5116061;28;20678;-79
2024/01/05 08:12:08;;;;;;;12.63;6.47;;;3.20;99.90;;;;;;5116084;28;20754;-78
2024/01/05 08:14:35;;;;;;;10.73;6.33;;;3.20;99.90;;;;;;5116212;28;20199;-78
2024/01/05 08:17:01;;;;;;;14.13;6.03;;;3.30;99.90;;;;;;5116249;28;20226;-79
2024/01/05 08:19:28;;;;;;;8.93;5.60;;;3.30;99.90;;;;;;5116049;28;20204;-78
2024/01/05 08:21:55;;;;;;;10.93;5.70;;;3.40;99.90;;;;;;5115696;28;20221;-78
2024/01/05 08:24:25;;;;;;;9.33;6.00;;;3.50;99.90;;;;;;5115846;28;20246;-78
2024/01/05 08:26:52;;;;;;;8.40;5.53;;;3.60;99.90;;;;;;5115642;28;20567;-78
2024/01/05 08:29:21;;;;;;;9.63;5.60;;;3.70;99.90;;;;;;5115956;28;20194;-77
2024/01/05 08:31:48;;;;;;;9.77;6.50;;;3.80;99.90;;;;;;5115278;28;20198;-79
2024/01/05 08:34:14;;;;;;;14.03;8.40;;;3.90;99.90;;;;;;5115624;28;20199;-79
2024/01/05 08:36:41;;;;;;;12.87;7.03;;;3.90;99.90;;;;;;5116015;28;20207;-79
2024/01/05 08:39:08;;;;;;;8.50;5.57;;;4.00;99.90;;;;;;5115599;28;20202;-79
2024/01/05 08:41:36;;;;;;;9.90;5.00;;;4.00;99.90;;;;;;5115548;28;20198;-79
2024/01/05 08:44:02;;;;;;;9.60;4.90;;;4.10;99.90;;;;;;5118583;28;20233;-79
2024/01/05 08:46:29;;;;;;;5.73;4.80;;;4.20;99.90;;;;;;5116131;28;20289;-75
2024/01/05 08:48:56;;;;;;;6.50;4.50;;;4.20;99.90;;;;;;5115737;28;20558;-76
2024/01/05 08:51:22;;;;;;;6.57;4.37;;;4.30;99.90;;;;;;5115444;28;20204;-77
2024/01/05 08:53:49;;;;;;;7.60;4.67;;;4.30;99.90;;;;;;5115311;28;20261;-76
2024/01/05 08:56:16;;;;;;;8.37;4.70;;;4.40;99.90;;;;;;5115599;28;20196;-77
2024/01/05 08:58:44;;;;;;;7.03;4.27;;;4.50;99.90;;;;;;5115492;28;20200;-77
2024/01/05 09:01:11;;;;;;;7.23;4.57;;;4.70;99.90;;;;;;5115696;28;20255;-77
2024/01/05 09:03:37;;;;;;;5.40;3.80;;;5.20;99.90;;;;;;5115423;28;20759;-78
2024/01/05 09:06:04;;;;;;;7.90;3.80;;;5.30;99.90;;;;;;5115531;28;20199;-77
2024/01/05 09:08:31;;;;;;;6.00;4.20;;;5.70;99.90;;;;;;5115056;28;20191;-77
2024/01/05 09:10:57;;;;;;;6.90;3.37;;;6.20;99.90;;;;;;5115206;28;20252;-77
2024/01/05 09:13:24;;;;;;;6.23;4.60;;;6.60;99.90;;;;;;5115162;28;20203;-76
2024/01/05 09:15:52;;;;;;;5.30;3.50;;;6.70;99.90;;;;;;5115167;28;20199;-76
2024/01/05 09:18:18;;;;;;;6.07;3.07;;;6.80;99.90;;;;;;5114999;28;20191;-76
2024/01/05 09:20:45;;;;;;;4.70;3.37;;;6.70;99.90;;;;;;5114799;28;20225;-76
2024/01/05 09:23:13;;;;;;;4.87;3.30;;;6.80;99.90;;;;;;5114917;28;20249;-76
2024/01/05 09:25:39;;;;;;;4.00;3.00;;;6.80;99.90;;;;;;5116571;28;20696;-77
2024/01/05 09:28:06;;;;;;;5.77;3.07;;;6.80;99.90;;;;;;5115416;28;20192;-76
2024/01/05 09:30:33;;;;;;;4.27;2.90;;;6.90;99.90;;;;;;5115065;28;20279;-77
2024/01/05 09:33:03;;;;;;;5.53;3.33;;;6.90;99.90;;;;;;5114762;28;20207;-77
2024/01/05 09:35:30;;;;;;;5.10;3.37;;;6.90;99.90;;;;;;5116309;28;20282;-76
2024/01/05 09:37:57;;;;;;;5.73;3.10;;;6.90;99.90;;;;;;5114963;28;20203;-76
2024/01/05 09:40:24;;;;;;;6.17;3.60;;;7.00;99.90;;;;;;5114694;28;20188;-77
2024/01/05 09:42:51;;;;;;;4.90;3.00;;;7.00;99.90;;;;;;5115497;28;20597;-76
2024/01/05 09:45:21;;;;;;;4.33;3.30;;;7.20;99.90;;;;;;5113584;28;20236;-76
2024/01/05 09:47:49;;;;;;;5.33;3.77;;;7.30;99.90;;;;;;5114388;28;20196;-75
2024/01/05 09:50:18;;;;;;;3.30;2.63;;;7.50;99.90;;;;;;5114166;28;20291;-75
2024/01/05 09:52:45;;;;;;;4.57;3.13;;;7.60;99.90;;;;;;5114574;28;20277;-74
2024/01/05 09:55:12;;;;;;;4.53;3.37;;;7.60;99.90;;;;;;5114191;28;20203;-77
2024/01/05 09:57:41;;;;;;;3.73;3.07;;;7.80;99.90;;;;;;5114431;28;20200;-77
2024/01/05 10:00:12;;;;;;;5.33;4.00;;;7.70;99.90;;;;;;5114121;28;20200;-78
2024/01/05 10:02:42;;;;;;;3.53;2.80;;;8.00;99.90;;;;;;5114124;28;20219;-76
2024/01/05 10:05:09;;;;;;;3.67;3.28;;;8.30;99.90;;;;;;5114202;28;20195;-76
2024/01/05 10:07:43;;;;;;;5.37;3.40;;;8.30;99.90;;;;;;5113814;28;20202;-75
2024/01/05 10:10:12;;;;;;;7.07;3.38;;;8.50;99.90;;;;;;5113947;28;20195;-76
2024/01/05 10:12:39;;;;;;;4.60;3.47;;;8.50;99.90;;;;;;5113721;28;20612;-76
2024/01/05 10:15:07;;;;;;;5.85;3.85;;;8.60;99.90;;;;;;5113681;28;20613;-75
2024/01/05 10:17:34;;;;;;;6.97;4.20;;;8.60;99.90;;;;;;5113722;28;20293;-76
2024/01/05 10:20:15;;;;;;;8.40;7.00;;;8.70;99.90;;;;;;5113592;28;20260;-76
2024/01/05 10:22:46;;;;;;;5.72;4.13;;;8.70;99.90;;;;;;5113604;28;20215;-75
2024/01/05 10:25:17;;;;;;;5.60;3.93;;;8.90;99.90;;;;;;5113527;28;20199;-74
2024/01/05 10:27:44;;;;;;;7.03;4.30;;;9.20;99.90;;;;;;5113709;28;20670;-75
2024/01/05 10:30:24;;;;;;;6.43;4.20;;;8.90;99.90;;;;;;5113864;28;20199;-74
2024/01/05 10:33:03;;;;;;;5.37;4.40;;;9.20;99.90;;;;;;5113689;28;20290;-74
2024/01/05 10:35:30;;;;;;;7.83;4.57;;;8.90;99.90;;;;;;5113732;28;20528;-73
2024/01/05 10:38:10;;;;;;;8.20;5.00;;;8.70;99.90;;;;;;5113626;28;20666;-74
2024/01/05 10:40:37;;;;;;;8.07;4.80;;;8.50;99.90;;;;;;5114290;28;20196;-83
2024/01/05 10:43:09;;;;;;;8.20;4.83;;;8.40;99.90;;;;;;5113357;28;20637;-74
2024/01/05 10:45:37;;;;;;;5.30;3.77;;;8.20;99.90;;;;;;5113519;28;20203;-75
2024/01/05 10:48:07;;;;;;;5.17;4.30;;;8.10;99.90;;;;;;5113580;28;20231;-74
2024/01/05 10:50:36;;;;;;;5.97;4.20;;;8.20;99.90;;;;;;5113389;28;20203;-76
2024/01/05 10:53:04;;;;;;;6.77;4.77;;;8.40;99.90;;;;;;5113399;28;20655;-75
2024/01/05 10:55:33;;;;;;;7.43;4.20;;;8.50;99.90;;;;;;5113362;28;20215;-75
2024/01/05 10:58:00;;;;;;;6.87;4.57;;;8.40;99.90;;;;;;5113479;28;20195;-75
2024/01/05 11:00:27;;;;;;;7.13;4.90;;;8.30;99.90;;;;;;5113300;28;20203;-75
2024/01/05 11:03:06;;;;;;;7.83;4.47;;;8.10;99.90;;;;;;5113195;28;20292;-75
2024/01/05 11:05:33;;;;;;;7.30;4.60;;;8.00;99.90;;;;;;5113621;28;20601;-75
2024/01/05 11:08:02;;;;;;;8.50;6.73;;;7.90;99.90;;;;;;5113611;28;20195;-76
2024/01/05 11:10:44;;;;;;;6.63;4.90;;;8.10;99.90;;;;;;5112758;28;20562;-74
2024/01/05 11:13:39;;;;;;;5.23;3.57;;;8.10;99.90;;;;;;5113269;28;20200;-75
2024/01/05 11:16:29;;;;;;;7.30;4.50;;;8.00;99.90;;;;;;5113262;28;20207;-76
2024/01/05 11:19:25;;;;;;;5.77;3.97;;;8.00;99.90;;;;;;5113206;28;20199;-76
2024/01/05 11:21:56;;;;;;;6.83;3.60;;;8.40;99.90;;;;;;5111898;28;20196;-75
2024/01/05 11:24:24;;;;;;;7.23;4.17;;;8.70;99.90;;;;;;5113039;28;20231;-75
2024/01/05 11:26:54;;;;;;;5.30;3.57;;;9.10;99.90;;;;;;5112889;28;20200;-74
2024/01/05 11:29:48;;;;;;;6.37;4.83;;;9.10;99.90;;;;;;5112953;28;20196;-75
2024/01/05 11:32:33;;;;;;;5.17;3.40;;;9.70;99.90;;;;;;5112775;28;20196;-75
2024/01/05 11:35:00;;;;;;;6.47;3.53;;;10.70;99.90;;;;;;5112961;28;20195;-75
2024/01/05 11:37:29;;;;;;;5.20;3.67;;;11.20;99.90;;;;;;5112356;28;20195;-78
2024/01/05 11:39:55;;;;;;;5.00;4.13;;;11.40;99.90;;;;;;5112641;28;20206;-76
2024/01/05 11:42:31;;;;;;;9.53;4.70;;;12.50;99.90;;;;;;5112397;28;20650;-76
2024/01/05 11:44:59;;;;;;;4.80;3.57;;;12.70;99.90;;;;;;5112765;28;20191;-75
2024/01/05 11:47:42;;;;;;;5.33;3.73;;;12.30;99.90;;;;;;5112538;28;20295;-75
2024/01/05 11:50:25;;;;;;;7.90;3.97;;;12.20;99.90;;;;;;5112702;28;20195;-75
2024/01/05 11:53:10;;;;;;;4.53;3.87;;;10.90;99.90;;;;;;5112688;28;20235;-75
2024/01/05 11:55:40;;;;;;;6.43;4.03;;;10.50;99.90;;;;;;5112560;28;20208;-75
2024/01/05 11:58:08;;;;;;;6.40;4.00;;;10.00;99.90;;;;;;5112880;28;20635;-74
2024/01/05 12:00:36;;;;;;;5.67;4.20;;;9.70;99.90;;;;;;5112642;28;20631;-75
2024/01/05 12:03:03;;;;;;;5.77;4.47;;;9.40;99.90;;;;;;5112313;28;20219;-75
2024/01/05 12:05:29;;;;;;;6.53;4.00;;;9.30;99.90;;;;;;5112131;28;20195;-75
2024/01/05 12:07:57;;;;;;;5.13;3.40;;;9.00;99.90;;;;;;5113540;28;20208;-75
2024/01/05 12:10:24;;;;;;;7.90;4.23;;;9.00;99.90;;;;;;5116220;28;20192;-76
2024/01/05 12:12:52;;;;;;;7.47;4.17;;;9.00;99.90;;;;;;5116077;28;20219;-76
2024/01/05 12:15:21;;;;;;;8.07;5.83;;;8.90;99.90;;;;;;5115943;28;20645;-77
2024/01/05 12:17:48;;;;;;;5.20;4.10;;;8.90;99.90;;;;;;5115855;28;20287;-76
2024/01/05 12:20:15;;;;;;;5.27;3.90;;;8.90;99.90;;;;;;5116113;28;20206;-74
2024/01/05 12:22:42;;;;;;;8.67;4.47;;;8.80;99.90;;;;;;5115795;28;20544;-74
2024/01/05 12:25:09;;;;;;;7.50;4.23;;;8.70;99.90;;;;;;5115774;28;20228;-74
2024/01/05 12:27:37;;;;;;;5.20;4.30;;;8.70;99.90;;;;;;5115819;28;20219;-74
2024/01/05 12:30:05;;;;;;;6.30;3.63;;;8.60;99.90;;;;;;5115671;28;20655;-74
2024/01/05 12:32:34;;;;;;;6.73;3.97;;;8.40;99.90;;;;;;5115669;28;20195;-74
2024/01/05 12:35:01;;;;;;;8.17;3.83;;;8.40;99.90;;;;;;5115560;28;20206;-74
2024/01/05 12:37:27;;;;;;;5.63;3.70;;;8.50;99.90;;;;;;5115476;28;20658;-73
2024/01/05 12:39:54;;;;;;;5.70;3.73;;;8.40;99.90;;;;;;5115730;28;20240;-75
2024/01/05 12:42:21;;;;;;;8.63;4.50;;;8.40;99.90;;;;;;5115570;28;20207;-75
2024/01/05 12:44:47;;;;;;;5.93;3.67;;;8.50;99.90;;;;;;5115542;28;20231;-75
2024/01/05 12:47:28;;;;;;;4.87;3.43;;;8.60;99.90;;;;;;5115440;28;20208;-77
2024/01/05 12:49:56;;;;;;;8.80;4.27;;;8.50;99.90;;;;;;5115686;28;20252;-78
2024/01/05 12:52:33;;;;;;;5.63;3.57;;;8.60;99.90;;;;;;5115542;28;20225;-78
2024/01/05 12:55:00;;;;;;;8.00;4.27;;;8.60;99.90;;;;;;5118145;27;20222;-82